createdAt,value
2017-07-07T00:00:08.159Z,1004.96
2017-07-07T00:01:09.597Z,1004.95
2017-07-07T00:02:11.015Z,1004.91
2017-07-07T00:03:12.526Z,1004.91
2017-07-07T00:04:13.966Z,1004.85
2017-07-07T00:05:15.397Z,1004.86
2017-07-07T00:06:16.823Z,1004.84
2017-07-07T00:07:18.260Z,1004.80
2017-07-07T00:08:19.677Z,1004.74
2017-07-07T00:09:21.111Z,1004.75
2017-07-07T00:10:22.529Z,1004.69
2017-07-07T00:11:23.950Z,1004.61
2017-07-07T00:12:25.380Z,1004.57
2017-07-07T00:13:26.803Z,1004.57
2017-07-07T00:14:28.230Z,1004.58
2017-07-07T00:15:29.656Z,1004.55
2017-07-07T00:16:31.085Z,1004.58
2017-07-07T00:17:32.507Z,1004.53
2017-07-07T00:18:33.930Z,1004.57
2017-07-07T00:19:35.356Z,1004.48
2017-07-07T00:20:36.778Z,1004.45
2017-07-07T00:21:38.203Z,1004.46
2017-07-07T00:22:39.625Z,1004.42
2017-07-07T00:23:41.063Z,1004.41
2017-07-07T00:24:42.495Z,1004.46
2017-07-07T00:25:43.921Z,1004.43
2017-07-07T00:26:45.350Z,1004.44
2017-07-07T00:27:46.780Z,1004.48
2017-07-07T00:28:48.199Z,1004.45
2017-07-07T00:29:49.626Z,1004.44
2017-07-07T00:30:51.056Z,1004.45
2017-07-07T00:31:52.591Z,1004.47
2017-07-07T00:32:54.010Z,1004.44
2017-07-07T00:33:55.436Z,1004.39
2017-07-07T00:34:56.870Z,1004.39
2017-07-07T00:35:58.304Z,1004.40
2017-07-07T00:36:59.730Z,1004.40
2017-07-07T00:38:01.157Z,1004.39
2017-07-07T00:39:02.594Z,1004.38
2017-07-07T00:40:04.013Z,1004.42
2017-07-07T00:41:05.436Z,1004.37
2017-07-07T00:42:06.861Z,1004.42
2017-07-07T00:43:08.290Z,1004.39
2017-07-07T00:44:09.709Z,1004.36
2017-07-07T00:45:11.133Z,1004.32
2017-07-07T00:46:12.558Z,1004.32
2017-07-07T00:47:13.984Z,1004.33
2017-07-07T00:48:15.416Z,1004.40
2017-07-07T00:49:16.845Z,1004.37
2017-07-07T00:50:18.275Z,1004.33
2017-07-07T00:51:19.757Z,1004.29
2017-07-07T00:52:21.120Z,1004.30
2017-07-07T00:53:22.548Z,1004.28
2017-07-07T00:54:23.976Z,1004.26
2017-07-07T00:55:25.391Z,1004.24
2017-07-07T00:56:26.818Z,1004.28
2017-07-07T00:57:28.245Z,1004.23
2017-07-07T00:58:29.670Z,1004.15
2017-07-07T00:59:31.091Z,1004.08
2017-07-07T01:00:32.513Z,1004.02
2017-07-07T01:01:33.941Z,1004.02
2017-07-07T01:02:35.368Z,1004.03
2017-07-07T01:03:36.802Z,1004.10
2017-07-07T01:04:38.226Z,1004.08
2017-07-07T01:05:39.657Z,1004.03
2017-07-07T01:06:41.080Z,1004.01
2017-07-07T01:07:42.645Z,1004.02
2017-07-07T01:08:44.070Z,1004.01
2017-07-07T01:09:45.502Z,1004.05
2017-07-07T01:10:46.931Z,1004.06
2017-07-07T01:11:48.351Z,1004.04
2017-07-07T01:12:49.771Z,1003.97
2017-07-07T01:13:51.191Z,1003.95
2017-07-07T01:14:52.616Z,1003.95
2017-07-07T01:15:54.139Z,1003.89
2017-07-07T01:16:55.563Z,1003.92
2017-07-07T01:17:56.982Z,1003.88
2017-07-07T01:18:58.410Z,1003.87
2017-07-07T01:19:59.914Z,1003.85
2017-07-07T01:21:01.336Z,1003.87
2017-07-07T01:22:02.763Z,1003.85
2017-07-07T01:23:04.195Z,1003.83
2017-07-07T01:24:05.627Z,1003.82
2017-07-07T01:25:07.056Z,1003.85
2017-07-07T01:26:08.483Z,1003.84
2017-07-07T01:27:09.992Z,1003.81
2017-07-07T01:28:11.420Z,1003.83
2017-07-07T01:29:12.841Z,1003.85
2017-07-07T01:30:14.262Z,1003.85
2017-07-07T01:31:15.701Z,1003.81
2017-07-07T01:32:17.135Z,1003.83
2017-07-07T01:33:18.569Z,1003.79
2017-07-07T01:34:20.014Z,1003.80
2017-07-07T01:35:21.436Z,1003.76
2017-07-07T01:36:22.860Z,1003.71
2017-07-07T01:37:24.291Z,1003.75
2017-07-07T01:38:25.709Z,1003.77
2017-07-07T01:39:27.137Z,1003.76
2017-07-07T01:40:28.571Z,1003.75
2017-07-07T01:41:29.990Z,1003.73
2017-07-07T01:42:31.412Z,1003.71
2017-07-07T01:43:32.832Z,1003.72
2017-07-07T01:44:34.255Z,1003.67
2017-07-07T01:45:35.679Z,1003.58
2017-07-07T01:46:37.102Z,1003.56
2017-07-07T01:47:38.525Z,1003.56
2017-07-07T01:48:39.957Z,1003.54
2017-07-07T01:49:41.377Z,1003.60
2017-07-07T01:50:42.807Z,1003.53
2017-07-07T01:51:44.228Z,1003.51
2017-07-07T01:52:45.646Z,1003.48
2017-07-07T01:53:47.064Z,1003.44
2017-07-07T01:54:48.493Z,1003.48
2017-07-07T01:55:49.913Z,1003.42
2017-07-07T01:56:51.342Z,1003.40
2017-07-07T01:57:52.780Z,1003.35
2017-07-07T01:58:54.185Z,1003.36
2017-07-07T01:59:55.618Z,1003.44
2017-07-07T02:00:57.048Z,1003.41
2017-07-07T02:01:58.487Z,1003.43
2017-07-07T02:02:59.908Z,1003.43
2017-07-07T02:04:01.332Z,1003.44
2017-07-07T02:05:02.767Z,1003.39
2017-07-07T02:06:04.202Z,1003.34
2017-07-07T02:07:05.627Z,1003.32
2017-07-07T02:08:07.058Z,1003.32
2017-07-07T02:09:08.481Z,1003.29
2017-07-07T02:10:09.916Z,1003.26
2017-07-07T02:11:11.321Z,1003.15
2017-07-07T02:12:12.747Z,1003.12
2017-07-07T02:13:14.168Z,1003.09
2017-07-07T02:14:15.589Z,1003.09
2017-07-07T02:15:17.010Z,1003.06
2017-07-07T02:16:18.432Z,1003.07
2017-07-07T02:17:19.874Z,1003.06
2017-07-07T02:18:21.303Z,1003.07
2017-07-07T02:19:22.727Z,1003.05
2017-07-07T02:20:24.156Z,1003.00
2017-07-07T02:21:25.584Z,1002.94
2017-07-07T02:22:27.006Z,1002.94
2017-07-07T02:23:28.431Z,1002.96
2017-07-07T02:24:29.936Z,1003.01
2017-07-07T02:25:31.359Z,1003.00
2017-07-07T02:26:32.788Z,1003.05
2017-07-07T02:27:34.898Z,1003.05
2017-07-07T02:28:36.326Z,1003.03
2017-07-07T02:29:37.749Z,1003.10
2017-07-07T02:30:39.190Z,1003.09
2017-07-07T02:31:40.696Z,1003.13
2017-07-07T02:32:42.123Z,1003.18
2017-07-07T02:33:43.546Z,1003.23
2017-07-07T02:34:45.000Z,1003.26
2017-07-07T02:35:46.424Z,1003.35
2017-07-07T02:36:47.849Z,1003.35
2017-07-07T02:37:49.265Z,1003.39
2017-07-07T02:38:50.698Z,1003.55
2017-07-07T02:39:52.133Z,1003.58
2017-07-07T02:40:53.562Z,1003.62
2017-07-07T02:41:54.986Z,1003.53
2017-07-07T02:42:56.408Z,1003.41
2017-07-07T02:43:57.831Z,1003.37
2017-07-07T02:44:59.255Z,1003.29
2017-07-07T02:46:00.694Z,1003.31
2017-07-07T02:47:02.117Z,1003.26
2017-07-07T02:48:03.538Z,1003.20
2017-07-07T02:49:04.968Z,1003.18
2017-07-07T02:50:06.390Z,1003.10
2017-07-07T02:51:07.818Z,1003.12
2017-07-07T02:52:09.235Z,1003.17
2017-07-07T02:53:10.656Z,1003.30
2017-07-07T02:54:12.081Z,1003.29
2017-07-07T02:55:13.507Z,1003.24
2017-07-07T02:56:14.941Z,1003.25
2017-07-07T02:57:16.366Z,1003.29
2017-07-07T02:58:17.802Z,1003.36
2017-07-07T02:59:19.230Z,1003.33
2017-07-07T03:00:20.655Z,1003.29
2017-07-07T03:01:22.083Z,1003.31
2017-07-07T03:02:23.502Z,1003.31
2017-07-07T03:03:24.932Z,1003.36
2017-07-07T03:04:26.357Z,1003.52
2017-07-07T03:05:27.790Z,1003.65
2017-07-07T03:06:29.222Z,1003.62
2017-07-07T03:07:30.646Z,1003.64
2017-07-07T03:08:32.083Z,1003.63
2017-07-07T03:09:33.509Z,1003.65
2017-07-07T03:10:34.928Z,1003.63
2017-07-07T03:11:36.357Z,1003.63
2017-07-07T03:12:37.814Z,1003.61
2017-07-07T03:13:39.237Z,1003.65
2017-07-07T03:14:40.655Z,1003.67
2017-07-07T03:15:42.082Z,1003.74
2017-07-07T03:16:43.502Z,1003.75
2017-07-07T03:17:44.926Z,1003.70
2017-07-07T03:18:46.366Z,1003.70
2017-07-07T03:19:47.789Z,1003.62
2017-07-07T03:20:49.214Z,1003.62
2017-07-07T03:21:50.635Z,1003.62
2017-07-07T03:22:52.051Z,1003.61
2017-07-07T03:23:53.477Z,1003.62
2017-07-07T03:24:54.903Z,1003.77
2017-07-07T03:25:56.332Z,1003.80
2017-07-07T03:26:57.750Z,1003.88
2017-07-07T03:27:59.180Z,1003.87
2017-07-07T03:29:00.726Z,1003.97
2017-07-07T03:30:02.095Z,1003.94
2017-07-07T03:31:03.521Z,1003.90
2017-07-07T03:32:04.948Z,1003.90
2017-07-07T03:33:06.371Z,1003.88
2017-07-07T03:34:07.797Z,1003.87
2017-07-07T03:35:09.211Z,1003.84
2017-07-07T03:36:10.640Z,1003.85
2017-07-07T03:37:12.059Z,1003.89
2017-07-07T03:38:13.478Z,1003.91
2017-07-07T03:39:14.908Z,1003.86
2017-07-07T03:40:16.329Z,1003.79
2017-07-07T03:41:17.755Z,1003.81
2017-07-07T03:42:19.179Z,1003.91
2017-07-07T03:43:20.598Z,1003.90
2017-07-07T03:44:22.024Z,1003.94
2017-07-07T03:45:23.460Z,1004.08
2017-07-07T03:46:24.886Z,1004.21
2017-07-07T03:47:26.311Z,1004.28
2017-07-07T03:48:27.731Z,1004.28
2017-07-07T03:49:29.157Z,1004.35
2017-07-07T03:50:30.580Z,1004.35
2017-07-07T03:51:32.011Z,1004.35
2017-07-07T03:52:33.441Z,1004.35
2017-07-07T03:53:34.874Z,1004.38
2017-07-07T03:54:36.305Z,1004.30
2017-07-07T03:55:37.735Z,1004.21
2017-07-07T03:56:39.160Z,1004.15
2017-07-07T03:57:40.585Z,1004.19
2017-07-07T03:58:42.006Z,1004.11
2017-07-07T03:59:43.430Z,1004.08
2017-07-07T04:00:44.901Z,1004.02
2017-07-07T04:01:46.291Z,1004.09
2017-07-07T04:02:47.716Z,1004.08
2017-07-07T04:03:49.148Z,1004.06
2017-07-07T04:04:50.581Z,1004.13
2017-07-07T04:05:52.015Z,1004.17
2017-07-07T04:06:53.443Z,1004.21
2017-07-07T04:07:54.862Z,1004.15
2017-07-07T04:08:56.291Z,1004.20
2017-07-07T04:09:57.720Z,1004.17
2017-07-07T04:10:59.142Z,1004.09
2017-07-07T04:12:00.572Z,1004.15
2017-07-07T04:13:02.011Z,1004.16
2017-07-07T04:14:03.438Z,1004.14
2017-07-07T04:15:04.864Z,1004.11
2017-07-07T04:16:06.319Z,1004.08
2017-07-07T04:17:07.743Z,1004.11
2017-07-07T04:18:09.172Z,1004.06
2017-07-07T04:19:10.612Z,1004.01
2017-07-07T04:20:12.098Z,1004.02
2017-07-07T04:21:13.522Z,1003.97
2017-07-07T04:22:14.946Z,1003.93
2017-07-07T04:23:16.376Z,1003.87
2017-07-07T04:24:17.899Z,1003.78
2017-07-07T04:25:19.330Z,1003.77
2017-07-07T04:26:20.759Z,1003.76
2017-07-07T04:27:22.188Z,1003.76
2017-07-07T04:28:23.621Z,1003.74
2017-07-07T04:29:25.047Z,1003.71
2017-07-07T04:30:26.478Z,1003.73
2017-07-07T04:31:27.917Z,1003.71
2017-07-07T04:32:29.349Z,1003.69
2017-07-07T04:33:30.787Z,1003.68
2017-07-07T04:34:32.219Z,1003.68
2017-07-07T04:35:33.646Z,1003.73
2017-07-07T04:36:35.072Z,1003.74
2017-07-07T04:37:36.490Z,1003.79
2017-07-07T04:38:37.926Z,1003.89
2017-07-07T04:39:39.358Z,1003.86
2017-07-07T04:40:40.777Z,1003.81
2017-07-07T04:41:42.210Z,1003.85
2017-07-07T04:42:43.641Z,1003.82
2017-07-07T04:43:45.060Z,1003.81
2017-07-07T04:44:46.485Z,1003.74
2017-07-07T04:45:47.903Z,1003.75
2017-07-07T04:46:49.339Z,1003.77
2017-07-07T04:47:50.769Z,1003.73
2017-07-07T04:48:52.195Z,1003.77
2017-07-07T04:49:53.622Z,1003.79
2017-07-07T04:50:55.056Z,1003.76
2017-07-07T04:51:56.472Z,1003.72
2017-07-07T04:52:57.901Z,1003.61
2017-07-07T04:53:59.331Z,1003.60
2017-07-07T04:55:00.761Z,1003.59
2017-07-07T04:56:02.187Z,1003.54
2017-07-07T04:57:03.619Z,1003.56
2017-07-07T04:58:05.051Z,1003.57
2017-07-07T04:59:06.473Z,1003.59
2017-07-07T05:00:07.901Z,1003.52
2017-07-07T05:01:09.335Z,1003.57
2017-07-07T05:02:10.763Z,1003.56
2017-07-07T05:03:12.185Z,1003.57
2017-07-07T05:04:13.625Z,1003.52
2017-07-07T05:05:15.056Z,1003.56
2017-07-07T05:06:16.487Z,1003.60
2017-07-07T05:07:17.914Z,1003.58
2017-07-07T05:08:19.885Z,1003.54
2017-07-07T05:09:21.313Z,1003.56
2017-07-07T05:10:22.737Z,1003.55
2017-07-07T05:11:24.159Z,1003.50
2017-07-07T05:12:25.593Z,1003.51
2017-07-07T05:13:27.014Z,1003.48
2017-07-07T05:14:28.442Z,1003.45
2017-07-07T05:15:29.872Z,1003.42
2017-07-07T05:16:31.300Z,1003.45
2017-07-07T05:17:32.739Z,1003.39
2017-07-07T05:18:34.160Z,1003.42
2017-07-07T05:19:35.584Z,1003.41
2017-07-07T05:20:37.008Z,1003.41
2017-07-07T05:21:38.444Z,1003.42
2017-07-07T05:22:39.872Z,1003.42
2017-07-07T05:23:41.313Z,1003.42
2017-07-07T05:24:42.746Z,1003.38
2017-07-07T05:25:44.177Z,1003.38
2017-07-07T05:26:45.593Z,1003.34
2017-07-07T05:27:47.032Z,1003.34
2017-07-07T05:28:48.459Z,1003.31
2017-07-07T05:29:49.890Z,1003.30
2017-07-07T05:30:51.418Z,1003.33
2017-07-07T05:31:52.846Z,1003.35
2017-07-07T05:32:54.272Z,1003.35
2017-07-07T05:33:55.705Z,1003.34
2017-07-07T05:34:57.141Z,1003.35
2017-07-07T05:35:58.580Z,1003.35
2017-07-07T05:37:00.010Z,1003.35
2017-07-07T05:38:01.435Z,1003.30
2017-07-07T05:39:02.866Z,1003.34
2017-07-07T05:40:04.298Z,1003.31
2017-07-07T05:41:05.733Z,1003.29
2017-07-07T05:42:07.171Z,1003.26
2017-07-07T05:43:08.601Z,1003.26
2017-07-07T05:44:10.028Z,1003.23
2017-07-07T05:45:11.458Z,1003.21
2017-07-07T05:46:12.887Z,1003.21
2017-07-07T05:47:14.326Z,1003.20
2017-07-07T05:48:15.749Z,1003.19
2017-07-07T05:49:17.178Z,1003.16
2017-07-07T05:50:18.607Z,1003.14
2017-07-07T05:51:20.030Z,1003.15
2017-07-07T05:52:21.461Z,1003.18
2017-07-07T05:53:22.895Z,1003.14
2017-07-07T05:54:24.332Z,1003.16
2017-07-07T05:55:25.760Z,1003.13
2017-07-07T05:56:27.190Z,1003.14
2017-07-07T05:57:28.620Z,1003.16
2017-07-07T05:58:30.054Z,1003.17
2017-07-07T05:59:31.482Z,1003.19
2017-07-07T06:00:32.913Z,1003.22
2017-07-07T06:01:34.352Z,1003.21
2017-07-07T06:02:35.783Z,1003.19
2017-07-07T06:03:37.213Z,1003.21
2017-07-07T06:04:38.652Z,1003.23
2017-07-07T06:05:40.090Z,1003.21
2017-07-07T06:06:41.520Z,1003.24
2017-07-07T06:07:42.959Z,1003.21
2017-07-07T06:08:44.388Z,1003.20
2017-07-07T06:09:45.824Z,1003.19
2017-07-07T06:10:47.253Z,1003.17
2017-07-07T06:11:48.679Z,1003.21
2017-07-07T06:12:50.104Z,1003.20
2017-07-07T06:13:51.531Z,1003.23
2017-07-07T06:14:52.959Z,1003.23
2017-07-07T06:15:54.391Z,1003.23
2017-07-07T06:16:55.819Z,1003.23
2017-07-07T06:17:57.245Z,1003.26
2017-07-07T06:18:58.671Z,1003.30
2017-07-07T06:20:00.152Z,1003.24
2017-07-07T06:21:01.580Z,1003.28
2017-07-07T06:22:03.007Z,1003.33
2017-07-07T06:23:04.439Z,1003.25
2017-07-07T06:24:05.873Z,1003.32
2017-07-07T06:25:07.307Z,1003.28
2017-07-07T06:26:08.741Z,1003.24
2017-07-07T06:27:10.173Z,1003.32
2017-07-07T06:28:11.602Z,1003.30
2017-07-07T06:29:13.031Z,1003.34
2017-07-07T06:30:14.467Z,1003.43
2017-07-07T06:31:15.903Z,1003.41
2017-07-07T06:32:17.367Z,1003.42
2017-07-07T06:33:18.820Z,1003.48
2017-07-07T06:34:20.366Z,1003.52
2017-07-07T06:35:21.795Z,1003.53
2017-07-07T06:36:23.222Z,1003.49
2017-07-07T06:37:24.644Z,1003.49
2017-07-07T06:38:26.070Z,1003.46
2017-07-07T06:39:27.501Z,1003.40
2017-07-07T06:40:28.928Z,1003.47
2017-07-07T06:41:30.425Z,1003.51
2017-07-07T06:42:31.874Z,1003.45
2017-07-07T06:43:33.302Z,1003.46
2017-07-07T06:44:34.736Z,1003.48
2017-07-07T06:45:36.172Z,1003.55
2017-07-07T06:46:37.593Z,1003.55
2017-07-07T06:47:39.018Z,1003.50
2017-07-07T06:48:40.522Z,1003.54
2017-07-07T06:49:41.957Z,1003.54
2017-07-07T06:50:43.394Z,1003.52
2017-07-07T06:51:44.822Z,1003.53
2017-07-07T06:52:46.289Z,1003.47
2017-07-07T06:53:47.716Z,1003.48
2017-07-07T06:54:49.157Z,1003.48
2017-07-07T06:55:50.591Z,1003.53
2017-07-07T06:56:52.133Z,1003.57
2017-07-07T06:57:53.568Z,1003.69
2017-07-07T06:58:55.003Z,1003.70
2017-07-07T06:59:56.424Z,1003.73
2017-07-07T07:00:57.857Z,1003.73
2017-07-07T07:01:59.288Z,1003.65
2017-07-07T07:03:00.722Z,1003.60
2017-07-07T07:04:02.164Z,1003.58
2017-07-07T07:05:03.602Z,1003.60
2017-07-07T07:06:05.038Z,1003.64
2017-07-07T07:07:06.470Z,1003.71
2017-07-07T07:08:07.905Z,1004.00
2017-07-07T07:09:09.337Z,1003.97
2017-07-07T07:10:10.833Z,1003.96
2017-07-07T07:11:12.201Z,1004.03
2017-07-07T07:12:13.638Z,1004.02
2017-07-07T07:13:15.065Z,1004.08
2017-07-07T07:14:16.496Z,1004.00
2017-07-07T07:15:17.927Z,1003.98
2017-07-07T07:16:19.355Z,1004.06
2017-07-07T07:17:20.783Z,1004.13
2017-07-07T07:18:22.211Z,1004.25
2017-07-07T07:19:23.645Z,1004.13
2017-07-07T07:20:25.078Z,1004.22
2017-07-07T07:21:26.496Z,1004.11
2017-07-07T07:22:27.931Z,1004.10
2017-07-07T07:23:29.358Z,1004.05
2017-07-07T07:24:30.789Z,1004.08
2017-07-07T07:25:32.216Z,1004.03
2017-07-07T07:26:33.641Z,1003.97
2017-07-07T07:27:35.068Z,1004.11
2017-07-07T07:28:36.500Z,1004.15
2017-07-07T07:29:37.926Z,1004.14
2017-07-07T07:30:39.349Z,1004.04
2017-07-07T07:31:41.081Z,1004.12
2017-07-07T07:32:42.508Z,1004.24
2017-07-07T07:33:43.940Z,1004.30
2017-07-07T07:34:45.374Z,1004.27
2017-07-07T07:35:46.816Z,1004.29
2017-07-07T07:36:48.244Z,1004.24
2017-07-07T07:37:49.673Z,1004.23
2017-07-07T07:38:51.099Z,1004.30
2017-07-07T07:39:52.536Z,1004.30
2017-07-07T07:40:53.964Z,1004.25
2017-07-07T07:41:55.389Z,1004.29
2017-07-07T07:42:56.814Z,1004.32
2017-07-07T07:43:58.238Z,1004.32
2017-07-07T07:44:59.664Z,1004.55
2017-07-07T07:46:01.088Z,1004.53
2017-07-07T07:47:02.519Z,1004.45
2017-07-07T07:48:03.949Z,1004.52
2017-07-07T07:49:05.377Z,1004.55
2017-07-07T07:50:06.815Z,1004.57
2017-07-07T07:51:08.241Z,1004.58
2017-07-07T07:52:09.732Z,1004.58
2017-07-07T07:53:11.100Z,1004.61
2017-07-07T07:54:12.538Z,1004.69
2017-07-07T07:55:13.966Z,1004.70
2017-07-07T07:56:15.395Z,1004.75
2017-07-07T07:57:16.831Z,1004.69
2017-07-07T07:58:18.256Z,1004.76
2017-07-07T07:59:19.693Z,1004.71
2017-07-07T08:00:21.124Z,1004.71
2017-07-07T08:01:22.551Z,1004.74
2017-07-07T08:02:23.982Z,1004.74
2017-07-07T08:03:25.408Z,1004.71
2017-07-07T08:04:26.840Z,1004.69
2017-07-07T08:05:28.277Z,1004.64
2017-07-07T08:06:29.712Z,1004.60
2017-07-07T08:07:31.141Z,1004.61
2017-07-07T08:08:32.565Z,1004.68
2017-07-07T08:09:34.005Z,1004.60
2017-07-07T08:10:35.427Z,1004.65
2017-07-07T08:11:36.850Z,1004.58
2017-07-07T08:12:38.277Z,1004.58
2017-07-07T08:13:39.713Z,1004.63
2017-07-07T08:14:41.170Z,1004.56
2017-07-07T08:15:42.579Z,1004.58
2017-07-07T08:16:44.010Z,1004.62
2017-07-07T08:17:45.442Z,1004.58
2017-07-07T08:18:46.875Z,1004.57
2017-07-07T08:19:48.304Z,1004.61
2017-07-07T08:20:49.732Z,1004.57
2017-07-07T08:21:51.169Z,1004.54
2017-07-07T08:22:52.599Z,1004.60
2017-07-07T08:23:54.028Z,1004.62
2017-07-07T08:24:55.461Z,1004.63
2017-07-07T08:25:56.886Z,1004.65
2017-07-07T08:26:58.936Z,1004.68
2017-07-07T08:28:00.369Z,1004.67
2017-07-07T08:29:01.795Z,1004.68
2017-07-07T08:30:03.223Z,1004.68
2017-07-07T08:31:04.753Z,1004.64
2017-07-07T08:32:06.300Z,1004.62
2017-07-07T08:33:07.738Z,1004.60
2017-07-07T08:34:09.193Z,1004.60
2017-07-07T08:35:10.629Z,1004.58
2017-07-07T08:36:12.069Z,1004.61
2017-07-07T08:37:13.503Z,1004.59
2017-07-07T08:38:14.956Z,1004.64
2017-07-07T08:39:16.384Z,1004.63
2017-07-07T08:40:17.819Z,1004.64
2017-07-07T08:41:19.254Z,1004.63
2017-07-07T08:42:20.678Z,1004.61
2017-07-07T08:43:22.106Z,1004.64
2017-07-07T08:44:23.542Z,1004.70
2017-07-07T08:45:24.976Z,1004.69
2017-07-07T08:46:26.404Z,1004.66
2017-07-07T08:47:27.828Z,1004.65
2017-07-07T08:48:29.263Z,1004.65
2017-07-07T08:49:30.696Z,1004.64
2017-07-07T08:50:32.124Z,1004.64
2017-07-07T08:51:33.554Z,1004.71
2017-07-07T08:52:34.996Z,1004.67
2017-07-07T08:53:36.430Z,1004.73
2017-07-07T08:54:37.860Z,1004.74
2017-07-07T08:55:39.295Z,1004.72
2017-07-07T08:56:40.731Z,1004.69
2017-07-07T08:57:42.163Z,1004.70
2017-07-07T08:58:43.601Z,1004.72
2017-07-07T08:59:45.047Z,1004.73
2017-07-07T09:00:46.481Z,1004.72
2017-07-07T09:01:47.913Z,1004.74
2017-07-07T09:02:49.354Z,1004.72
2017-07-07T09:03:50.783Z,1004.72
2017-07-07T09:04:52.216Z,1004.71
2017-07-07T09:05:53.657Z,1004.75
2017-07-07T09:06:55.088Z,1004.70
2017-07-07T09:07:56.532Z,1004.81
2017-07-07T09:08:57.957Z,1004.80
2017-07-07T09:09:59.403Z,1004.79
2017-07-07T09:11:00.839Z,1004.87
2017-07-07T09:12:02.267Z,1004.82
2017-07-07T09:13:03.698Z,1004.83
2017-07-07T09:14:05.133Z,1004.85
2017-07-07T09:15:06.569Z,1004.86
2017-07-07T09:16:08.007Z,1004.85
2017-07-07T09:17:09.445Z,1004.85
2017-07-07T09:18:10.881Z,1004.84
2017-07-07T09:19:12.314Z,1004.80
2017-07-07T09:20:13.753Z,1004.85
2017-07-07T09:21:15.188Z,1004.83
2017-07-07T09:22:16.630Z,1004.83
2017-07-07T09:23:18.057Z,1004.88
2017-07-07T09:24:19.496Z,1004.86
2017-07-07T09:25:20.928Z,1004.87
2017-07-07T09:26:22.363Z,1004.90
2017-07-07T09:27:23.795Z,1004.90
2017-07-07T09:28:25.229Z,1004.94
2017-07-07T09:29:26.666Z,1004.98
2017-07-07T09:30:28.128Z,1004.99
2017-07-07T09:31:29.555Z,1004.89
2017-07-07T09:32:31.058Z,1004.94
2017-07-07T09:33:32.658Z,1004.92
2017-07-07T09:34:34.833Z,1004.93
2017-07-07T09:35:36.267Z,1004.95
2017-07-07T09:36:37.705Z,1004.96
2017-07-07T09:37:39.145Z,1004.88
2017-07-07T09:38:40.581Z,1004.91
2017-07-07T09:39:42.012Z,1004.85
2017-07-07T09:40:43.442Z,1004.89
2017-07-07T09:41:44.875Z,1004.88
2017-07-07T09:42:46.308Z,1004.85
2017-07-07T09:43:47.750Z,1004.93
2017-07-07T09:44:49.184Z,1004.83
2017-07-07T09:45:50.625Z,1004.81
2017-07-07T09:46:52.061Z,1004.81
2017-07-07T09:47:53.492Z,1004.84
2017-07-07T09:48:54.921Z,1004.89
2017-07-07T09:49:56.356Z,1004.87
2017-07-07T09:50:57.788Z,1004.88
2017-07-07T09:51:59.228Z,1004.98
2017-07-07T09:53:00.667Z,1004.95
2017-07-07T09:54:02.102Z,1004.98
2017-07-07T09:55:03.544Z,1004.95
2017-07-07T09:56:04.983Z,1004.92
2017-07-07T09:57:06.415Z,1005.01
2017-07-07T09:58:11.269Z,1005.02
2017-07-07T09:59:12.724Z,1005.03
2017-07-07T10:00:14.159Z,1004.99
2017-07-07T10:01:15.602Z,1005.05
2017-07-07T10:02:17.050Z,1005.07
2017-07-07T10:03:18.489Z,1005.07
2017-07-07T10:04:19.929Z,1005.06
2017-07-07T10:05:21.361Z,1005.07
2017-07-07T10:06:22.796Z,1005.07
2017-07-07T10:07:24.242Z,1005.12
2017-07-07T10:08:25.697Z,1005.07
2017-07-07T10:09:27.146Z,1005.07
2017-07-07T10:10:28.575Z,1005.05
2017-07-07T10:11:30.009Z,1005.06
2017-07-07T10:12:31.444Z,1005.06
2017-07-07T10:13:32.880Z,1005.03
2017-07-07T10:14:34.322Z,1005.02
2017-07-07T10:15:35.772Z,1005.04
2017-07-07T10:16:37.201Z,1005.10
2017-07-07T10:17:38.632Z,1005.11
2017-07-07T10:18:40.065Z,1005.08
2017-07-07T10:19:41.489Z,1005.03
2017-07-07T10:20:42.933Z,1005.00
2017-07-07T10:21:44.372Z,1005.02
2017-07-07T10:22:45.806Z,1004.95
2017-07-07T10:23:47.234Z,1005.03
2017-07-07T10:24:48.673Z,1005.01
2017-07-07T10:25:50.115Z,1005.04
2017-07-07T10:26:51.554Z,1005.00
2017-07-07T10:27:52.992Z,1005.03
2017-07-07T10:28:54.808Z,1005.00
2017-07-07T10:29:56.268Z,1005.08
2017-07-07T10:30:57.706Z,1005.01
2017-07-07T10:31:59.140Z,1004.97
2017-07-07T10:33:00.572Z,1004.97
2017-07-07T10:34:02.010Z,1004.97
2017-07-07T10:35:03.443Z,1004.91
2017-07-07T10:36:04.877Z,1004.95
2017-07-07T10:37:06.315Z,1004.94
2017-07-07T10:38:07.756Z,1004.93
2017-07-07T10:39:09.186Z,1004.92
2017-07-07T10:40:10.622Z,1004.98
2017-07-07T10:41:12.061Z,1004.97
2017-07-07T10:42:13.492Z,1005.03
2017-07-07T10:43:14.932Z,1004.99
2017-07-07T10:44:16.365Z,1005.00
2017-07-07T10:45:17.803Z,1004.95
2017-07-07T10:46:19.234Z,1004.89
2017-07-07T10:47:20.664Z,1004.90
2017-07-07T10:48:22.094Z,1004.95
2017-07-07T10:49:23.532Z,1004.98
2017-07-07T10:50:24.965Z,1004.96
2017-07-07T10:51:26.405Z,1004.94
2017-07-07T10:52:27.841Z,1004.99
2017-07-07T10:53:29.276Z,1004.93
2017-07-07T10:54:30.710Z,1004.93
2017-07-07T10:55:32.150Z,1004.90
2017-07-07T10:56:33.583Z,1004.91
2017-07-07T10:57:35.021Z,1004.94
2017-07-07T10:58:36.453Z,1005.01
2017-07-07T10:59:37.894Z,1004.92
2017-07-07T11:00:39.340Z,1004.93
2017-07-07T11:01:40.769Z,1004.93
2017-07-07T11:02:42.198Z,1004.96
2017-07-07T11:03:43.637Z,1004.94
2017-07-07T11:04:45.077Z,1004.95
2017-07-07T11:05:46.513Z,1004.99
2017-07-07T11:06:47.952Z,1005.00
2017-07-07T11:07:49.391Z,1005.00
2017-07-07T11:08:50.834Z,1004.98
2017-07-07T11:09:52.274Z,1004.99
2017-07-07T11:10:53.705Z,1005.01
2017-07-07T11:11:55.145Z,1005.04
2017-07-07T11:12:56.583Z,1005.11
2017-07-07T11:13:58.025Z,1005.19
2017-07-07T11:14:59.463Z,1005.15
2017-07-07T11:16:00.901Z,1005.12
2017-07-07T11:17:02.336Z,1005.15
2017-07-07T11:18:03.779Z,1005.15
2017-07-07T11:19:05.206Z,1005.22
2017-07-07T11:20:06.645Z,1005.17
2017-07-07T11:21:08.079Z,1005.18
2017-07-07T11:22:09.511Z,1005.20
2017-07-07T11:23:10.942Z,1005.14
2017-07-07T11:24:12.375Z,1005.18
2017-07-07T11:25:13.811Z,1005.22
2017-07-07T11:26:15.249Z,1005.26
2017-07-07T11:27:16.681Z,1005.31
2017-07-07T11:28:18.161Z,1005.40
2017-07-07T11:29:19.626Z,1005.33
2017-07-07T11:30:21.067Z,1005.34
2017-07-07T11:31:22.507Z,1005.30
2017-07-07T11:32:23.944Z,1005.32
2017-07-07T11:33:25.381Z,1005.32
2017-07-07T11:34:26.815Z,1005.27
2017-07-07T11:35:28.250Z,1005.26
2017-07-07T11:36:29.686Z,1005.28
2017-07-07T11:37:31.120Z,1005.25
2017-07-07T11:38:32.557Z,1005.29
2017-07-07T11:39:33.991Z,1005.29
2017-07-07T11:40:35.427Z,1005.31
2017-07-07T11:41:36.882Z,1005.31
2017-07-07T11:42:38.313Z,1005.30
2017-07-07T11:43:39.762Z,1005.24
2017-07-07T11:44:41.206Z,1005.24
2017-07-07T11:45:42.657Z,1005.28
2017-07-07T11:46:44.099Z,1005.25
2017-07-07T11:47:45.531Z,1005.37
2017-07-07T11:48:46.963Z,1005.30
2017-07-07T11:49:48.403Z,1005.26
2017-07-07T11:50:49.833Z,1005.32
2017-07-07T11:51:51.267Z,1005.32
2017-07-07T11:52:52.708Z,1005.26
2017-07-07T11:53:54.141Z,1005.27
2017-07-07T11:54:55.565Z,1005.23
2017-07-07T11:55:56.999Z,1005.26
2017-07-07T11:56:58.438Z,1005.23
2017-07-07T11:57:59.877Z,1005.21
2017-07-07T11:59:01.310Z,1005.26
2017-07-07T12:00:02.746Z,1005.24
2017-07-07T12:01:04.185Z,1005.23
2017-07-07T12:02:05.628Z,1005.30
2017-07-07T12:03:07.077Z,1005.35
2017-07-07T12:04:08.520Z,1005.34
2017-07-07T12:05:09.958Z,1005.32
2017-07-07T12:06:11.396Z,1005.37
2017-07-07T12:07:12.838Z,1005.32
2017-07-07T12:08:14.273Z,1005.34
2017-07-07T12:09:15.703Z,1005.35
2017-07-07T12:10:17.163Z,1005.30
2017-07-07T12:11:18.603Z,1005.27
2017-07-07T12:12:20.041Z,1005.32
2017-07-07T12:13:21.479Z,1005.26
2017-07-07T12:14:22.924Z,1005.33
2017-07-07T12:15:24.357Z,1005.21
2017-07-07T12:16:25.793Z,1005.26
2017-07-07T12:17:27.229Z,1005.27
2017-07-07T12:18:28.665Z,1005.24
2017-07-07T12:19:30.103Z,1005.31
2017-07-07T12:20:31.548Z,1005.27
2017-07-07T12:21:32.988Z,1005.39
2017-07-07T12:22:34.427Z,1005.39